createdAt,value
2022-08-05T00:02:07.259Z,100786.00
2022-08-05T00:04:10.159Z,100785.59
2022-08-05T00:06:27.922Z,100788.00
2022-08-05T00:08:34.509Z,100788.44
2022-08-05T00:10:37.360Z,100779.16
2022-08-05T00:12:55.817Z,100788.06
2022-08-05T00:14:59.014Z,100781.22
2022-08-05T00:17:19.525Z,100785.66
2022-08-05T00:19:33.789Z,100784.09
2022-08-05T00:21:46.155Z,100782.47
2022-08-05T00:24:09.845Z,100782.91
2022-08-05T00:26:10.290Z,100787.75
2022-08-05T00:28:12.777Z,100786.19
2022-08-05T00:30:14.809Z,100787.41
2022-08-05T00:32:16.802Z,100787.44
2022-08-05T00:34:54.614Z,100783.41
2022-08-05T00:37:11.837Z,100783.41
2022-08-05T00:39:02.973Z,100790.69
2022-08-05T00:41:11.942Z,100782.22
2022-08-05T00:43:15.284Z,100797.16
2022-08-05T00:45:17.472Z,100788.69
2022-08-05T00:47:53.337Z,100776.22
2022-08-05T00:49:52.539Z,100781.03
2022-08-05T00:51:54.549Z,100778.22
2022-08-05T00:54:02.225Z,100778.22
2022-08-05T00:56:08.093Z,100782.66
2022-08-05T00:58:14.543Z,100782.28
2022-08-05T01:00:17.061Z,100779.06
2022-08-05T01:02:21.963Z,100780.66
2022-08-05T01:04:29.754Z,100783.50
2022-08-05T01:06:32.438Z,100781.88
2022-08-05T01:08:43.378Z,100775.00
2022-08-05T01:10:58.289Z,100772.19
2022-08-05T01:13:13.411Z,100773.44
2022-08-05T01:15:35.239Z,100776.66
2022-08-05T01:17:53.831Z,100770.22
2022-08-05T01:20:17.016Z,100769.41
2022-08-05T01:22:40.847Z,100772.25
2022-08-05T01:25:13.657Z,100762.16
2022-08-05T01:28:11.989Z,100769.41
2022-08-05T01:30:18.925Z,100764.59
2022-08-05T01:32:22.994Z,100760.56
2022-08-05T01:34:35.863Z,100759.75
2022-08-05T01:37:24.978Z,100758.94
2022-08-05T01:39:46.274Z,100765.78
2022-08-05T01:41:49.356Z,100759.34
2022-08-05T01:43:52.249Z,100756.13
2022-08-05T01:45:56.786Z,100748.06
2022-08-05T01:48:00.786Z,100748.91
2022-08-05T01:50:18.894Z,100754.53
2022-08-05T01:52:32.384Z,100751.72
2022-08-05T01:54:45.770Z,100744.06
2022-08-05T01:58:12.556Z,100754.16
2022-08-05T01:59:16.040Z,100737.63
2022-08-05T02:01:21.497Z,100735.22
2022-08-05T02:03:39.056Z,100735.63
2022-08-05T02:05:42.650Z,100734.00
2022-08-05T02:07:59.834Z,100731.16
2022-08-05T02:10:04.558Z,100736.00
2022-08-05T02:12:47.040Z,100730.75
2022-08-05T02:15:26.159Z,100729.56
2022-08-05T02:18:33.179Z,100734.38
2022-08-05T02:20:49.752Z,100737.16
2022-08-05T02:23:05.641Z,100730.31
2022-08-05T02:25:49.507Z,100728.72
2022-08-05T02:27:58.911Z,100728.72
2022-08-05T02:30:02.171Z,100727.91
2022-08-05T02:32:05.429Z,100732.34
2022-08-05T02:34:12.090Z,100724.28
2022-08-05T02:36:15.341Z,100731.94
2022-08-05T02:38:19.466Z,100732.31
2022-08-05T02:40:22.830Z,100726.69
2022-08-05T02:42:30.703Z,100723.84
2022-08-05T02:44:38.117Z,100725.47
2022-08-05T02:46:53.114Z,100729.88
2022-08-05T02:49:01.078Z,100721.03
2022-08-05T02:51:03.395Z,100723.84
2022-08-05T02:53:05.422Z,100723.00
2022-08-05T02:55:14.183Z,100723.84
2022-08-05T02:58:11.487Z,100728.25
2022-08-05T02:59:50.487Z,100723.41
2022-08-05T03:01:58.195Z,100715.78
2022-08-05T03:04:11.943Z,100725.38
2022-08-05T03:06:54.061Z,100720.16
2022-08-05T03:08:42.591Z,100725.38
2022-08-05T03:11:01.335Z,100721.75
2022-08-05T03:13:17.785Z,100718.53
2022-08-05T03:15:19.786Z,100717.31
2022-08-05T03:17:22.083Z,100724.53
2022-08-05T03:19:33.941Z,100716.91
2022-08-05T03:21:41.347Z,100709.25
2022-08-05T03:23:50.654Z,100707.63
2022-08-05T03:26:30.383Z,100722.94
2022-08-05T03:28:14.633Z,100712.47
2022-08-05T03:30:20.895Z,100713.25
2022-08-05T03:32:32.362Z,100726.16
2022-08-05T03:34:35.336Z,100730.13
2022-08-05T03:36:37.557Z,100717.66
2022-08-05T03:38:42.874Z,100719.28
2022-08-05T03:40:54.555Z,100724.91
2022-08-05T03:43:01.429Z,100732.56
2022-08-05T03:45:21.102Z,100729.75
2022-08-05T03:47:24.587Z,100726.13
2022-08-05T03:49:31.159Z,100732.50
2022-08-05T03:52:37.668Z,100726.84
2022-08-05T03:56:01.205Z,100716.41
2022-08-05T03:56:53.051Z,100718.00
2022-08-05T03:58:57.925Z,100722.81
2022-08-05T04:01:01.889Z,100708.38
2022-08-05T04:03:06.127Z,100715.59
2022-08-05T04:05:10.133Z,100711.97
2022-08-05T04:07:12.307Z,100717.97
2022-08-05T04:09:15.653Z,100712.34
2022-08-05T04:11:22.630Z,100715.13
2022-08-05T04:13:25.663Z,100715.53
2022-08-05T04:16:03.263Z,100706.28
2022-08-05T04:18:09.279Z,100713.53
2022-08-05T04:20:23.703Z,100717.97
2022-08-05T04:22:26.560Z,100711.56
2022-08-05T04:24:28.652Z,100711.53
2022-08-05T04:26:32.395Z,100722.78
2022-08-05T04:28:34.722Z,100710.72
2022-08-05T04:30:36.858Z,100709.09
2022-08-05T04:32:39.036Z,100714.69
2022-08-05T04:34:43.245Z,100701.84
2022-08-05T04:36:50.414Z,100707.03
2022-08-05T04:38:54.737Z,100705.00
2022-08-05T04:40:59.027Z,100705.44
2022-08-05T04:43:01.079Z,100700.19
2022-08-05T04:45:03.349Z,100703.47
2022-08-05T04:47:09.483Z,100691.78
2022-08-05T04:49:14.906Z,100699.84
2022-08-05T04:51:17.778Z,100698.59
2022-08-05T04:53:20.052Z,100699.84
2022-08-05T04:56:00.087Z,100694.16
2022-08-05T04:57:47.989Z,100695.78
2022-08-05T04:59:53.527Z,100699.41
2022-08-05T05:02:34.996Z,100703.84
2022-08-05T05:04:17.648Z,100701.03
2022-08-05T05:06:39.995Z,100697.06
2022-08-05T05:08:42.786Z,100696.63
2022-08-05T05:10:47.289Z,100697.03
2022-08-05T05:12:58.716Z,100691.44
2022-08-05T05:15:03.661Z,100685.88
2022-08-05T05:17:07.550Z,100693.88
2022-08-05T05:19:19.476Z,100696.72
2022-08-05T05:21:27.221Z,100691.53
2022-08-05T05:23:39.385Z,100701.16
2022-08-05T05:25:51.357Z,100695.13
2022-08-05T05:27:55.895Z,100692.75
2022-08-05T05:30:03.868Z,100697.19
2022-08-05T05:32:07.339Z,100696.41
2022-08-05T05:34:15.611Z,100708.09
2022-08-05T05:36:18.689Z,100702.09
2022-08-05T05:38:22.376Z,100709.34
2022-08-05T05:40:30.295Z,100698.50
2022-08-05T05:42:34.237Z,100710.97
2022-08-05T05:44:37.683Z,100698.94
2022-08-05T05:46:44.907Z,100701.75
2022-08-05T05:48:49.850Z,100698.16
2022-08-05T05:50:52.860Z,100693.34
2022-08-05T05:52:54.870Z,100700.97
2022-08-05T05:55:00.843Z,100692.13
2022-08-05T05:57:03.889Z,100700.56
2022-08-05T05:59:15.635Z,100692.53
2022-08-05T06:01:17.616Z,100692.53
2022-08-05T06:03:40.741Z,100700.59
2022-08-05T06:05:54.304Z,100694.13
2022-08-05T06:08:02.020Z,100697.34
2022-08-05T06:10:10.214Z,100703.75
2022-08-05T06:12:12.583Z,100699.28
2022-08-05T06:14:17.644Z,100696.88
2022-08-05T06:16:30.806Z,100698.47
2022-08-05T06:18:36.595Z,100694.81
2022-08-05T06:20:41.502Z,100693.97
2022-08-05T06:22:49.778Z,100694.38
2022-08-05T06:24:52.473Z,100693.16
2022-08-05T06:26:54.544Z,100692.28
2022-08-05T06:28:57.604Z,100689.84
2022-08-05T06:31:11.086Z,100693.03
2022-08-05T06:34:00.495Z,100683.72
2022-08-05T06:36:04.003Z,100688.47
2022-08-05T06:38:11.222Z,100682.41
2022-08-05T06:40:14.103Z,100682.72
2022-08-05T06:42:22.989Z,100680.25
2022-08-05T06:44:27.739Z,100685.41
2022-08-05T06:46:30.627Z,100682.41
2022-08-05T06:48:53.538Z,100670.63
2022-08-05T06:50:57.177Z,100674.41
2022-08-05T06:53:11.457Z,100685.56
2022-08-05T06:55:13.847Z,100682.09
2022-08-05T06:58:02.610Z,100679.53
2022-08-05T06:59:42.206Z,100679.78
2022-08-05T07:01:53.038Z,100670.38
2022-08-05T07:03:55.183Z,100666.28
2022-08-05T07:05:57.161Z,100673.81
2022-08-05T07:07:59.175Z,100673.66
2022-08-05T07:10:03.352Z,100673.53
2022-08-05T07:12:06.038Z,100678.28
2022-08-05T07:14:29.808Z,100681.78
2022-08-05T07:17:58.981Z,100682.81
2022-08-05T07:19:12.560Z,100691.59
2022-08-05T07:21:18.195Z,100665.16
2022-08-05T07:23:29.441Z,100670.38
2022-08-05T07:25:56.318Z,100670.63
2022-08-05T07:27:56.367Z,100662.28
2022-08-05T07:30:24.007Z,100662.53
2022-08-05T07:32:26.054Z,100666.81
2022-08-05T07:34:28.797Z,100668.31
2022-08-05T07:36:31.070Z,100669.78
2022-08-05T07:38:42.666Z,100665.22
2022-08-05T07:40:45.726Z,100676.78
2022-08-05T07:42:57.684Z,100679.94
2022-08-05T07:45:01.015Z,100687.59
2022-08-05T07:47:06.924Z,100675.72
2022-08-05T07:49:10.128Z,100666.66
2022-08-05T07:51:23.751Z,100672.50
2022-08-05T07:53:36.843Z,100655.22
2022-08-05T07:56:06.202Z,100659.84
2022-08-05T07:58:17.707Z,100651.25
2022-08-05T08:00:36.348Z,100654.28
2022-08-05T08:03:15.451Z,100653.31
2022-08-05T08:05:00.750Z,100650.28
2022-08-05T08:07:05.510Z,100655.47
2022-08-05T08:09:09.259Z,100648.81
2022-08-05T08:11:13.775Z,100645.44
2022-08-05T08:13:22.133Z,100651.84
2022-08-05T08:16:35.712Z,100646.34
2022-08-05T08:17:53.387Z,100660.84
2022-08-05T08:20:44.401Z,100660.31
2022-08-05T08:22:17.416Z,100655.56
2022-08-05T08:24:20.197Z,100637.44
2022-08-05T08:26:26.531Z,100639.13
2022-08-05T08:28:36.410Z,100646.56
2022-08-05T08:30:47.948Z,100660.72
2022-08-05T08:32:51.786Z,100642.84
2022-08-05T08:34:55.508Z,100653.31
2022-08-05T08:37:04.737Z,100649.13
2022-08-05T08:39:15.689Z,100670.13
2022-08-05T08:41:18.492Z,100645.56
2022-08-05T08:45:18.095Z,100650.16
2022-08-05T08:45:44.356Z,100647.91
2022-08-05T08:48:07.648Z,100646.72
2022-08-05T08:50:31.077Z,100652.16
2022-08-05T08:52:33.774Z,100645.84
2022-08-05T08:54:36.232Z,100648.25
2022-08-05T08:56:47.681Z,100642.56
2022-08-05T08:58:51.502Z,100636.88
2022-08-05T09:00:53.617Z,100636.53
2022-08-05T09:02:55.769Z,100639.41
2022-08-05T09:05:17.810Z,100625.69
2022-08-05T09:07:28.894Z,100620.69
2022-08-05T09:09:41.575Z,100623.00
2022-08-05T09:11:50.686Z,100624.44
2022-08-05T09:14:10.085Z,100626.47
2022-08-05T09:16:18.120Z,100617.44
2022-08-05T09:18:20.818Z,100626.13
2022-08-05T09:20:37.396Z,100624.72
2022-08-05T09:23:18.746Z,100631.97
2022-08-05T09:25:24.452Z,100634.72
2022-08-05T09:28:03.830Z,100623.22
2022-08-05T09:30:07.411Z,100622.75
2022-08-05T09:32:40.126Z,100628.56
2022-08-05T09:34:52.793Z,100609.56
2022-08-05T09:36:59.205Z,100620.09
2022-08-05T09:39:18.528Z,100634.53
2022-08-05T09:41:24.276Z,100608.88
2022-08-05T09:43:40.915Z,100619.88
2022-08-05T09:46:07.605Z,100611.31
2022-08-05T09:48:28.554Z,100598.72
2022-08-05T09:50:37.513Z,100603.53
2022-08-05T09:52:45.070Z,100592.44
2022-08-05T09:54:58.665Z,100600.16
2022-08-05T09:57:01.336Z,100610.97
2022-08-05T09:59:09.711Z,100613.22
2022-08-05T10:01:31.630Z,100607.97
2022-08-05T10:03:56.767Z,100591.75
2022-08-05T10:06:15.741Z,100596.09
2022-08-05T10:08:36.745Z,100592.13
2022-08-05T10:10:50.237Z,100596.19
2022-08-05T10:12:58.410Z,100580.66
2022-08-05T10:15:25.651Z,100576.22
2022-08-05T10:17:37.949Z,100589.03
2022-08-05T10:20:04.337Z,100603.22
2022-08-05T10:22:04.159Z,100572.19
2022-08-05T10:24:11.097Z,100588.41
2022-08-05T10:26:14.173Z,100571.50
2022-08-05T10:28:29.225Z,100573.88
2022-08-05T10:32:46.780Z,100566.41
2022-08-05T10:33:01.084Z,100585.34
2022-08-05T10:35:05.229Z,100573.22
2022-08-05T10:37:07.306Z,100571.66
2022-08-05T10:39:24.586Z,100569.09
2022-08-05T10:41:47.964Z,100581.56
2022-08-05T10:44:05.910Z,100578.09
2022-08-05T10:46:11.843Z,100572.34
2022-08-05T10:48:36.225Z,100566.50
2022-08-05T10:51:22.210Z,100575.13
2022-08-05T10:53:42.710Z,100555.09
2022-08-05T10:56:21.651Z,100557.97
2022-08-05T10:58:36.194Z,100558.78
2022-08-05T11:00:55.367Z,100554.72
2022-08-05T11:03:23.172Z,100553.59
2022-08-05T11:05:31.576Z,100541.56
2022-08-05T11:08:03.014Z,100549.88
2022-08-05T11:10:03.732Z,100545.59
2022-08-05T11:12:27.148Z,100547.34
2022-08-05T11:15:01.040Z,100551.69
2022-08-05T11:17:58.883Z,100536.44
2022-08-05T11:20:16.669Z,100544.31
2022-08-05T11:23:00.468Z,100540.19
2022-08-05T11:26:04.417Z,100539.63
2022-08-05T11:28:17.140Z,100537.38
2022-08-05T11:30:19.431Z,100554.78
2022-08-05T11:32:30.542Z,100538.88
2022-08-05T11:34:51.689Z,100545.84
2022-08-05T11:36:56.491Z,100528.66
2022-08-05T11:38:59.204Z,100537.91
2022-08-05T11:41:34.996Z,100539.66
2022-08-05T11:44:00.960Z,100531.69
2022-08-05T11:46:30.624Z,100522.41
2022-08-05T11:48:12.610Z,100523.34
2022-08-05T11:50:16.732Z,100510.56
2022-08-05T11:52:29.440Z,100506.88
2022-08-05T11:54:34.617Z,100503.19
2022-08-05T11:56:50.452Z,100501.75
2022-08-05T11:58:54.191Z,100515.03
2022-08-05T12:01:22.431Z,100509.22
2022-08-05T12:03:31.639Z,100495.91
2022-08-05T12:05:39.569Z,100495.91
2022-08-05T12:08:08.073Z,100507.69
2022-08-05T12:10:11.464Z,100495.75
2022-08-05T12:12:14.319Z,100494.09
2022-08-05T12:14:18.195Z,100511.69
2022-08-05T12:16:25.376Z,100500.16
2022-08-05T12:18:33.179Z,100497.97
2022-08-05T12:20:38.704Z,100536.16
2022-08-05T12:22:40.996Z,100501.03
2022-08-05T12:24:50.530Z,100505.50
2022-08-05T12:26:53.981Z,100491.72
2022-08-05T12:28:55.993Z,100491.88
2022-08-05T12:30:58.188Z,100486.19
2022-08-05T12:33:07.522Z,100483.44
2022-08-05T12:35:39.698Z,100495.31
2022-08-05T12:37:43.143Z,100488.97
2022-08-05T12:39:48.634Z,100481.56
2022-08-05T12:41:59.573Z,100482.03
2022-08-05T12:44:14.486Z,100479.81
2022-08-05T12:46:29.375Z,100475.31
2022-08-05T12:48:39.226Z,100492.25
2022-08-05T12:50:41.955Z,100473.78
2022-08-05T12:52:56.826Z,100479.97
2022-08-05T12:54:59.934Z,100479.94
2022-08-05T12:57:03.901Z,100478.88
2022-08-05T12:59:20.943Z,100468.91
2022-08-05T13:02:02.133Z,100471.44
2022-08-05T13:03:51.777Z,100463.81
2022-08-05T13:05:53.735Z,100470.13
2022-08-05T13:08:00.623Z,100463.31
2022-08-05T13:10:04.048Z,100481.38
2022-08-05T13:12:16.225Z,100469.41
2022-08-05T13:14:35.995Z,100459.03
2022-08-05T13:16:57.648Z,100467.38
2022-08-05T13:19:00.774Z,100461.06
2022-08-05T13:21:02.767Z,100453.84
2022-08-05T13:23:07.305Z,100464.25
2022-08-05T13:25:19.480Z,100454.78
2022-08-05T13:27:37.982Z,100467.63
2022-08-05T13:30:32.375Z,100470.97
2022-08-05T13:32:04.084Z,100458.47
2022-08-05T13:34:25.160Z,100468.88
2022-08-05T13:36:28.180Z,100468.13
2022-08-05T13:38:38.206Z,100456.34
2022-08-05T13:40:52.007Z,100454.00
2022-08-05T13:42:55.512Z,100457.75
2022-08-05T13:44:57.781Z,100459.03
2022-08-05T13:47:01.683Z,100444.38
2022-08-05T13:49:10.327Z,100435.69
2022-08-05T13:51:14.103Z,100440.84
2022-08-05T13:53:16.283Z,100444.47
2022-08-05T13:55:40.842Z,100440.34
2022-08-05T13:57:51.530Z,100441.19
2022-08-05T13:59:59.424Z,100434.50
2022-08-05T14:02:05.213Z,100443.25
2022-08-05T14:04:27.665Z,100445.94
2022-08-05T14:06:29.866Z,100435.41
2022-08-05T14:08:32.383Z,100428.31
2022-08-05T14:10:35.603Z,100427.50
2022-08-05T14:12:40.165Z,100430.28
2022-08-05T14:14:45.371Z,100429.88
2022-08-05T14:16:47.415Z,100414.16
2022-08-05T14:18:52.213Z,100428.34
2022-08-05T14:20:54.821Z,100425.09
2022-08-05T14:23:00.352Z,100419.91
2022-08-05T14:25:06.305Z,100429.13
2022-08-05T14:27:21.291Z,100424.09
2022-08-05T14:29:23.743Z,100441.09
2022-08-05T14:32:03.945Z,100425.75
2022-08-05T14:33:59.351Z,100413.28
2022-08-05T14:36:03.248Z,100405.13
2022-08-05T14:38:05.230Z,100413.06
2022-08-05T14:40:07.916Z,100414.09
2022-08-05T14:42:19.712Z,100425.56
2022-08-05T14:44:23.480Z,100418.84
2022-08-05T14:46:28.447Z,100431.88
2022-08-05T14:48:33.272Z,100416.38
2022-08-05T14:50:40.673Z,100417.25
2022-08-05T14:52:53.188Z,100413.06
2022-08-05T14:54:58.786Z,100403.03
2022-08-05T14:57:05.421Z,100405.16
2022-08-05T14:59:11.861Z,100408.28
2022-08-05T15:01:16.051Z,100400.72
2022-08-05T15:03:18.887Z,100409.13
2022-08-05T15:05:29.960Z,100410.84
2022-08-05T15:08:11.240Z,100409.44
2022-08-05T15:10:11.579Z,100399.72
2022-08-05T15:12:16.726Z,100403.22
2022-08-05T15:14:20.114Z,100400.94
2022-08-05T15:16:36.469Z,100397.56
2022-08-05T15:18:39.355Z,100392.81
2022-08-05T15:20:43.350Z,100388.59
2022-08-05T15:22:54.215Z,100380.88
2022-08-05T15:24:59.189Z,100374.53
2022-08-05T15:27:01.390Z,100379.75
2022-08-05T15:29:05.484Z,100375.22
2022-08-05T15:31:08.206Z,100378.38
2022-08-05T15:33:11.643Z,100380.25
2022-08-05T15:35:14.727Z,100376.03
2022-08-05T15:37:20.650Z,100365.75
2022-08-05T15:41:03.338Z,100357.66
2022-08-05T15:42:01.172Z,100354.31
2022-08-05T15:44:23.118Z,100361.69
2022-08-05T15:46:25.339Z,100359.28
2022-08-05T15:48:27.378Z,100353.72
2022-08-05T15:50:29.381Z,100360.06
2022-08-05T15:52:53.963Z,100355.66
2022-08-05T15:54:55.333Z,100345.00
2022-08-05T15:56:58.549Z,100347.19
2022-08-05T15:59:01.285Z,100341.41
2022-08-05T16:01:11.678Z,100343.31
2022-08-05T16:03:18.940Z,100337.50
2022-08-05T16:05:22.891Z,100338.28
2022-08-05T16:07:30.701Z,100340.28
2022-08-05T16:09:32.764Z,100331.88
2022-08-05T16:11:39.911Z,100339.97
2022-08-05T16:13:45.710Z,100340.16
2022-08-05T16:15:47.704Z,100328.16
2022-08-05T16:17:57.680Z,100333.56
2022-08-05T16:20:04.871Z,100329.91
2022-08-05T16:22:15.525Z,100327.09
2022-08-05T16:24:36.068Z,100326.59
2022-08-05T16:27:00.491Z,100322.78
2022-08-05T16:29:02.674Z,100318.13
2022-08-05T16:31:06.092Z,100315.00
2022-08-05T16:33:12.575Z,100303.53
2022-08-05T16:35:17.945Z,100299.19
2022-08-05T16:38:15.414Z,100312.06
2022-08-05T16:40:05.689Z,100299.78
2022-08-05T16:42:14.525Z,100312.50
2022-08-05T16:44:18.985Z,100305.94
2022-08-05T16:46:24.191Z,100311.28
2022-08-05T16:48:33.464Z,100308.59
2022-08-05T16:50:37.613Z,100311.56
2022-08-05T16:52:39.524Z,100325.03
2022-08-05T16:54:48.134Z,100320.56
2022-08-05T16:56:52.133Z,100316.19
2022-08-05T16:58:54.298Z,100309.47
2022-08-05T17:00:56.354Z,100318.06
2022-08-05T17:02:58.391Z,100306.03
2022-08-05T17:05:00.415Z,100312.41
2022-08-05T17:07:03.170Z,100305.03
2022-08-05T17:09:05.786Z,100307.91
2022-08-05T17:11:08.827Z,100309.09
2022-08-05T17:13:17.123Z,100316.97
2022-08-05T17:15:23.274Z,100314.78
2022-08-05T17:17:42.429Z,100316.28
2022-08-05T17:19:46.195Z,100313.88
2022-08-05T17:21:51.493Z,100312.09
2022-08-05T17:24:05.632Z,100302.38
2022-08-05T17:26:15.706Z,100310.19
2022-08-05T17:28:17.719Z,100310.84
2022-08-05T17:30:28.357Z,100302.59
2022-08-05T17:32:32.258Z,100313.75
2022-08-05T17:34:36.528Z,100307.44
2022-08-05T17:36:40.643Z,100306.97
2022-08-05T17:38:42.894Z,100321.28
2022-08-05T17:40:45.533Z,100314.47
2022-08-05T17:42:51.120Z,100321.78
2022-08-05T17:44:54.155Z,100321.00
2022-08-05T17:46:56.168Z,100309.53
2022-08-05T17:49:00.043Z,100322.44
2022-08-05T17:51:02.684Z,100323.09
2022-08-05T17:53:11.705Z,100320.69
2022-08-05T17:55:13.918Z,100329.75
2022-08-05T17:57:17.763Z,100340.72
2022-08-05T17:59:22.726Z,100349.94
2022-08-05T18:01:25.445Z,100375.53
2022-08-05T18:03:56.225Z,100386.47
2022-08-05T18:05:53.408Z,100381.56
2022-08-05T18:07:56.917Z,100393.91
2022-08-05T18:10:08.722Z,100396.75
2022-08-05T18:12:12.277Z,100412.28
2022-08-05T18:14:20.564Z,100425.13
2022-08-05T18:16:23.116Z,100438.72
2022-08-05T18:18:26.294Z,100447.47
2022-08-05T18:20:32.004Z,100448.63
2022-08-05T18:22:36.204Z,100474.00
2022-08-05T18:24:48.481Z,100482.13
2022-08-05T18:26:52.344Z,100468.22
2022-08-05T18:28:54.372Z,100473.44
2022-08-05T18:30:56.409Z,100504.00
2022-08-05T18:33:00.856Z,100508.38
2022-08-05T18:35:03.384Z,100503.03
2022-08-05T18:37:12.662Z,100497.25
2022-08-05T18:39:42.575Z,100508.41
2022-08-05T18:41:55.078Z,100509.31
2022-08-05T18:44:06.462Z,100502.22
2022-08-05T18:46:10.262Z,100511.25
2022-08-05T18:48:17.502Z,100528.13
2022-08-05T18:50:52.405Z,100531.28
2022-08-05T18:52:54.884Z,100531.25
2022-08-05T18:54:57.782Z,100532.28
2022-08-05T18:57:01.118Z,100538.41
2022-08-05T18:59:03.382Z,100533.28
2022-08-05T19:01:47.286Z,100536.22
2022-08-05T19:03:55.041Z,100552.34
2022-08-05T19:06:12.905Z,100552.78
2022-08-05T19:08:21.688Z,100542.47
2022-08-05T19:10:26.612Z,100533.50
2022-08-05T19:12:33.646Z,100514.94
2022-08-05T19:14:59.594Z,100512.00
2022-08-05T19:16:57.841Z,100516.53
2022-08-05T19:18:59.883Z,100516.53
2022-08-05T19:21:01.949Z,100524.00
2022-08-05T19:23:07.772Z,100536.59
2022-08-05T19:25:10.693Z,100534.22
2022-08-05T19:27:24.916Z,100542.03
2022-08-05T19:29:36.104Z,100557.28
2022-08-05T19:31:44.757Z,100557.84
2022-08-05T19:33:56.292Z,100568.72
2022-08-05T19:35:59.033Z,100573.59
2022-08-05T19:38:08.017Z,100593.09
2022-08-05T19:40:11.817Z,100612.97
2022-08-05T19:42:15.322Z,100625.13
2022-08-05T19:44:18.909Z,100645.16
2022-08-05T19:46:29.641Z,100648.19
2022-08-05T19:48:34.266Z,100661.91
2022-08-05T19:50:36.807Z,100661.41
2022-08-05T19:52:40.766Z,100659.09
2022-08-05T19:54:43.084Z,100668.41
2022-08-05T19:56:45.487Z,100670.38
2022-08-05T19:58:53.740Z,100649.03
2022-08-05T20:00:56.571Z,100649.00
2022-08-05T20:02:59.902Z,100647.41
2022-08-05T20:05:04.648Z,100638.28
2022-08-05T20:07:13.004Z,100639.13
2022-08-05T20:09:15.557Z,100642.97
2022-08-05T20:11:20.413Z,100628.50
2022-08-05T20:13:54.534Z,100617.91
2022-08-05T20:15:52.073Z,100620.41
2022-08-05T20:18:01.855Z,100603.28
2022-08-05T20:20:09.656Z,100593.16
2022-08-05T20:22:13.245Z,100587.81
2022-08-05T20:24:16.037Z,100574.47
2022-08-05T20:26:19.997Z,100579.81
2022-08-05T20:28:22.088Z,100584.25
2022-08-05T20:30:26.436Z,100573.41
2022-08-05T20:32:28.609Z,100569.91
2022-08-05T20:34:30.679Z,100572.75
2022-08-05T20:36:33.013Z,100592.16
2022-08-05T20:38:35.682Z,100598.25
2022-08-05T20:40:38.135Z,100602.66
2022-08-05T20:42:45.181Z,100607.31
2022-08-05T20:44:47.227Z,100618.22
2022-08-05T20:46:49.246Z,100623.88
2022-08-05T20:48:51.406Z,100635.16
2022-08-05T20:50:53.434Z,100635.13
2022-08-05T20:52:55.490Z,100634.31
2022-08-05T20:55:55.688Z,100632.75
2022-08-05T20:57:42.072Z,100640.94
2022-08-05T21:00:11.160Z,100644.22
2022-08-05T21:02:04.680Z,100646.59
2022-08-05T21:04:10.661Z,100654.66
2022-08-05T21:06:28.368Z,100667.56
2022-08-05T21:08:41.781Z,100668.47
2022-08-05T21:10:48.823Z,100679.44
2022-08-05T21:13:08.231Z,100662.06
2022-08-05T21:15:13.343Z,100656.88
2022-08-05T21:17:15.529Z,100662.50
2022-08-05T21:19:17.586Z,100666.63
2022-08-05T21:21:24.411Z,100663.06
2022-08-05T21:23:26.574Z,100672.69
2022-08-05T21:25:33.885Z,100674.06
2022-08-05T21:27:38.533Z,100675.72
2022-08-05T21:29:41.118Z,100675.25
2022-08-05T21:31:43.160Z,100670.81
2022-08-05T21:33:47.818Z,100674.09
2022-08-05T21:35:58.736Z,100669.28
2022-08-05T21:38:02.316Z,100691.09
2022-08-05T21:40:05.883Z,100686.28
2022-08-05T21:42:40.881Z,100710.22
2022-08-05T21:44:31.818Z,100706.56
2022-08-05T21:46:34.577Z,100708.19
2022-08-05T21:48:36.938Z,100717.84
2022-08-05T21:50:42.489Z,100723.50
2022-08-05T21:52:59.060Z,100728.81
2022-08-05T21:55:10.798Z,100732.44
2022-08-05T21:57:31.219Z,100732.44
2022-08-05T21:59:54.119Z,100738.88
2022-08-05T22:01:56.291Z,100744.16
2022-08-05T22:03:58.292Z,100734.91
2022-08-05T22:06:00.353Z,100744.66
2022-08-05T22:08:02.752Z,100750.69
2022-08-05T22:10:08.850Z,100749.91
2022-08-05T22:12:11.939Z,100743.88
2022-08-05T22:14:34.438Z,100738.22
2022-08-05T22:16:41.706Z,100733.84
2022-08-05T22:18:52.936Z,100742.69
2022-08-05T22:20:55.905Z,100737.88
2022-08-05T22:23:21.484Z,100741.91
2022-08-05T22:26:09.684Z,100739.09
2022-08-05T22:28:11.747Z,100734.66
2022-08-05T22:30:15.401Z,100743.13
2022-08-05T22:32:19.337Z,100752.81
2022-08-05T22:34:28.493Z,100757.25
2022-08-05T22:36:30.978Z,100755.63
2022-08-05T22:38:33.027Z,100756.44
2022-08-05T22:40:36.478Z,100750.00
2022-08-05T22:42:41.262Z,100754.88
2022-08-05T22:44:56.787Z,100749.63
2022-08-05T22:46:59.149Z,100752.06
2022-08-05T22:49:01.176Z,100747.25
2022-08-05T22:51:07.070Z,100756.91
2022-08-05T22:53:10.458Z,100742.81
2022-08-05T22:55:19.331Z,100728.31
2022-08-05T22:57:22.149Z,100738.41
2022-08-05T22:59:43.852Z,100744.84
2022-08-05T23:02:04.059Z,100745.66
2022-08-05T23:04:07.317Z,100749.28
2022-08-05T23:06:09.386Z,100756.56
2022-08-05T23:08:12.479Z,100759.78
2022-08-05T23:10:19.960Z,100760.16
2022-08-05T23:12:24.450Z,100771.88
2022-08-05T23:14:32.240Z,100783.16
2022-08-05T23:17:01.090Z,100788.78
2022-08-05T23:19:03.098Z,100793.59
2022-08-05T23:21:10.662Z,100794.78
2022-08-05T23:23:12.643Z,100787.53
2022-08-05T23:25:50.172Z,100781.88
2022-08-05T23:27:57.560Z,100778.69
2022-08-05T23:30:00.902Z,100769.41
2022-08-05T23:32:02.932Z,100781.88
2022-08-05T23:34:06.974Z,100787.91
2022-08-05T23:36:10.051Z,100787.91
2022-08-05T23:38:12.316Z,100794.75
2022-08-05T23:40:16.343Z,100810.06
2022-08-05T23:42:29.763Z,100815.69
2022-08-05T23:44:32.412Z,100816.91
2022-08-05T23:46:34.791Z,100817.69
2022-08-05T23:48:39.519Z,100823.69
2022-08-05T23:50:44.344Z,100813.66
2022-08-05T23:52:50.022Z,100820.09
2022-08-05T23:54:54.038Z,100822.91
2022-08-05T23:57:03.250Z,100822.91
2022-08-05T23:59:05.629Z,100824.84
